Time;durP1;ratioP1;P1;durP2;ratioP2;P2;SDS_P1;SDS_P2;PMS_P1;PMS_P2;Temp;Humidity;BMP_temperature;BMP_pressure;BME280_temperature;BME280_humidity;BME280_pressure;Samples;Min_cycle;Max_cycle;Signal;HPM_P1;HPM_P2
2023/09/23 00:01:14;;;;;;;;;2.00;1.00;;;;;22.21;42.12;100637.63;4958512;28;45263;-55
2023/09/23 00:03:39;;;;;;;;;0.50;0.50;;;;;22.20;42.39;100646.50;4958495;28;45904;-54
2023/09/23 00:06:05;;;;;;;;;2.00;1.00;;;;;22.20;42.49;100646.50;4958132;28;45417;-54
2023/09/23 00:08:31;;;;;;;;;0.00;0.00;;;;;22.20;42.34;100645.66;4958350;28;45284;-54
2023/09/23 00:10:56;;;;;;;;;0.00;0.00;;;;;22.20;42.41;100645.66;4958531;28;45524;-54
2023/09/23 00:13:22;;;;;;;;;0.75;0.00;;;;;22.19;42.29;100641.31;4957880;28;46008;-53
2023/09/23 00:15:52;;;;;;;;;0.00;0.00;;;;;22.16;42.09;100645.00;4958024;28;45342;-52
2023/09/23 00:18:18;;;;;;;;;2.75;0.75;;;;;22.18;42.27;100658.09;4958146;28;45375;-54
2023/09/23 00:20:46;;;;;;;;;3.25;0.75;;;;;22.18;42.54;100658.09;4958638;28;45588;-53
2023/09/23 00:23:12;;;;;;;;;0.50;0.50;;;;;22.16;42.08;100654.72;4958196;28;47139;-54
2023/09/23 00:25:38;;;;;;;;;0.25;0.25;;;;;22.16;42.19;100660.00;4957714;28;45489;-53
2023/09/23 00:28:08;;;;;;;;;0.00;0.00;;;;;22.16;42.22;100666.13;4957316;28;45310;-52
2023/09/23 00:30:35;;;;;;;;;0.75;0.75;;;;;22.15;42.39;100664.44;4958018;28;45446;-56
2023/09/23 00:33:01;;;;;;;;;2.00;1.00;;;;;22.15;42.36;100672.34;4957814;28;45381;-54
2023/09/23 00:35:28;;;;;;;;;0.00;0.00;;;;;22.16;42.22;100675.84;4957660;28;51728;-53
2023/09/23 00:37:53;;;;;;;;;0.00;0.00;;;;;22.14;42.35;100672.44;4957987;28;45461;-54
2023/09/23 00:40:29;;;;;;;;;0.00;0.00;;;;;22.16;42.34;100675.84;4958021;28;45229;-55
2023/09/23 00:43:05;;;;;;;;;1.25;1.00;;;;;22.14;42.43;100678.56;4957434;28;46953;-53
2023/09/23 00:45:31;;;;;;;;;0.25;0.25;;;;;22.14;42.43;100675.94;4957649;28;45773;-56
2023/09/23 00:47:58;;;;;;;;;1.00;0.00;;;;;22.13;42.35;100676.88;4957588;28;45255;-53
2023/09/23 00:50:24;;;;;;;;;0.00;0.00;;;;;22.13;42.23;100682.16;4957889;28;45445;-55
2023/09/23 00:52:51;;;;;;;;;0.50;0.50;;;;;22.14;42.44;100681.22;4957606;28;46056;-54
2023/09/23 00:55:20;;;;;;;;;3.00;0.25;;;;;22.13;42.40;100678.69;4957596;28;45281;-55
2023/09/23 00:57:47;;;;;;;;;0.00;0.00;;;;;22.13;42.07;100676.03;4958087;28;45337;-58
2023/09/23 01:00:13;;;;;;;;;2.00;0.00;;;;;22.12;42.36;100675.19;4958091;28;45525;-53
2023/09/23 01:02:39;;;;;;;;;0.00;0.00;;;;;22.13;42.26;100670.75;4956242;28;47135;-52
2023/09/23 01:05:05;;;;;;;;;1.00;1.00;;;;;22.12;42.53;100672.53;4957485;28;45371;-53
2023/09/23 01:07:32;;;;;;;;;1.00;0.00;;;;;22.13;42.60;100676.88;4957356;28;45327;-54
2023/09/23 01:09:59;;;;;;;;;0.00;0.00;;;;;22.13;42.30;100671.59;4957711;28;45259;-54
2023/09/23 01:12:25;;;;;;;;;1.00;0.00;;;;;22.12;42.21;100671.69;4957374;28;46394;-54
2023/09/23 01:14:52;;;;;;;;;1.00;0.25;;;;;22.10;42.50;100674.44;4957417;28;45656;-53
2023/09/23 01:17:17;;;;;;;;;0.00;0.00;;;;;22.11;42.39;100684.03;4957825;28;45392;-53
2023/09/23 01:19:43;;;;;;;;;0.00;0.00;;;;;22.10;42.34;100679.72;4957882;28;45327;-52
2023/09/23 01:22:08;;;;;;;;;0.75;0.75;;;;;22.11;42.37;100684.03;4955994;28;45965;-53
2023/09/23 01:24:34;;;;;;;;;1.00;1.00;;;;;22.12;42.29;100685.72;4957186;28;45377;-55
2023/09/23 01:27:00;;;;;;;;;0.00;0.00;;;;;22.11;42.49;100686.66;4957156;28;45389;-54
2023/09/23 01:29:26;;;;;;;;;0.25;0.25;;;;;22.11;42.48;100693.75;4956715;28;45623;-54
2023/09/23 01:32:10;;;;;;;;;0.00;0.00;;;;;22.11;42.44;100699.88;4956902;28;46943;-52
2023/09/23 01:34:35;;;;;;;;;1.00;1.00;;;;;22.09;42.25;100692.06;4957086;28;45266;-52
2023/09/23 01:37:01;;;;;;;;;0.00;0.00;;;;;22.10;42.51;100690.28;4957312;28;45333;-54
2023/09/23 01:39:26;;;;;;;;;0.75;0.75;;;;;22.10;42.34;100698.22;4958645;28;45601;-54
2023/09/23 01:41:53;;;;;;;;;1.00;0.00;;;;;22.09;42.34;100689.41;4960421;28;46068;-55
2023/09/23 01:44:19;;;;;;;;;0.00;0.00;;;;;22.08;42.41;100692.16;4960675;28;45172;-55
2023/09/23 01:46:45;;;;;;;;;2.00;0.00;;;;;22.09;42.58;100696.50;4960832;28;45302;-55
2023/09/23 01:49:10;;;;;;;;;1.00;1.00;;;;;22.06;42.43;100688.78;4960421;28;45465;-54
2023/09/23 01:51:35;;;;;;;;;0.33;0.00;;;;;22.07;42.71;100693.13;4959665;28;66659;-54
2023/09/23 01:54:01;;;;;;;;;1.50;0.00;;;;;22.06;42.46;100692.25;4960352;28;45371;-54
2023/09/23 01:56:26;;;;;;;;;0.50;0.50;;;;;22.07;42.49;100698.41;4960370;28;45407;-54
2023/09/23 01:58:51;;;;;;;;;0.00;0.00;;;;;22.06;42.48;100704.63;4960444;28;45564;-52
2023/09/23 02:01:16;;;;;;;;;0.00;0.00;;;;;22.05;42.60;100706.38;4959918;28;61552;-54
2023/09/23 02:03:42;;;;;;;;;1.00;0.00;;;;;22.07;42.71;100704.50;4959533;28;62256;-53
2023/09/23 02:06:07;;;;;;;;;0.00;0.00;;;;;22.05;42.48;100700.28;4960048;28;45354;-55
2023/09/23 02:08:32;;;;;;;;;0.00;0.00;;;;;22.05;42.38;100708.19;4960404;28;45542;-58
2023/09/23 02:10:58;;;;;;;;;0.00;0.00;;;;;22.04;42.36;100710.00;4959137;28;69889;-55
2023/09/23 02:13:23;;;;;;;;;0.00;0.00;;;;;22.06;42.41;100717.81;4958397;28;53992;-55
2023/09/23 02:15:49;;;;;;;;;0.00;0.00;;;;;22.02;42.42;100714.53;4960358;28;45420;-56
2023/09/23 02:18:15;;;;;;;;;0.00;0.00;;;;;22.04;42.41;100715.28;4960324;28;45403;-56
2023/09/23 02:20:40;;;;;;;;;1.50;0.00;;;;;22.03;42.60;100721.50;4958508;28;47156;-53
2023/09/23 02:23:05;;;;;;;;;1.50;0.75;;;;;22.03;42.60;100720.63;4959765;28;45270;-55
2023/09/23 02:25:31;;;;;;;;;0.00;0.00;;;;;22.01;42.86;100719.88;4960035;28;45409;-55
2023/09/23 02:27:57;;;;;;;;;0.00;0.00;;;;;22.02;42.31;100726.84;4960081;28;45397;-52
2023/09/23 02:30:23;;;;;;;;;2.00;0.00;;;;;22.03;42.32;100731.19;4960020;28;46303;-53
2023/09/23 02:32:48;;;;;;;;;1.25;0.00;;;;;22.02;42.59;100733.00;4959980;28;45667;-55
2023/09/23 02:35:15;;;;;;;;;1.00;1.00;;;;;22.02;42.38;100737.41;4959502;28;46285;-53
2023/09/23 02:37:46;;;;;;;;;0.00;0.00;;;;;22.01;42.40;100741.00;4960011;28;45518;-55
2023/09/23 02:40:12;;;;;;;;;0.00;0.00;;;;;22.01;42.55;100748.91;4959458;28;46367;-55
2023/09/23 02:42:39;;;;;;;;;0.00;0.00;;;;;22.01;42.35;100738.34;4959528;28;45656;-57
2023/09/23 02:45:06;;;;;;;;;0.00;0.00;;;;;22.01;42.66;100743.63;4959764;28;45449;-54
2023/09/23 02:47:32;;;;;;;;;0.00;0.00;;;;;22.00;42.37;100752.50;4958326;28;45430;-55
2023/09/23 02:49:57;;;;;;;;;2.00;0.00;;;;;21.99;42.57;100751.66;4959267;28;46116;-55
2023/09/23 02:52:22;;;;;;;;;0.33;0.33;;;;;21.99;42.35;100748.19;4958288;28;65575;-54
2023/09/23 02:54:48;;;;;;;;;2.00;0.00;;;;;21.98;42.46;100747.31;4958590;28;63984;-54
2023/09/23 02:57:14;;;;;;;;;0.00;0.00;;;;;21.99;42.76;100761.38;4959705;28;45885;-52
2023/09/23 02:59:42;;;;;;;;;0.00;0.00;;;;;21.99;42.76;100761.38;4959270;28;46058;-53
2023/09/23 03:02:08;;;;;;;;;0.00;0.00;;;;;21.96;42.62;100757.13;4959272;28;45651;-57
2023/09/23 03:04:34;;;;;;;;;0.00;0.00;;;;;21.97;42.63;100753.53;4959497;28;45391;-52
2023/09/23 03:07:04;;;;;;;;;0.00;0.00;;;;;21.97;42.45;100757.97;4959406;28;45248;-54
2023/09/23 03:09:32;;;;;;;;;1.50;1.00;;;;;21.98;42.28;100762.31;4941703;28;46494;-55
2023/09/23 03:12:00;;;;;;;;;0.25;0.25;;;;;21.99;42.61;100766.66;4959168;28;45684;-53
2023/09/23 03:14:36;;;;;;;;;2.00;0.00;;;;;21.98;42.33;100768.44;4959371;28;45266;-55
2023/09/23 03:17:07;;;;;;;;;0.00;0.00;;;;;21.98;42.32;100778.16;4959054;28;45367;-52
2023/09/23 03:19:32;;;;;;;;;0.75;0.00;;;;;21.98;42.55;100780.78;4958724;28;46076;-56
2023/09/23 03:21:59;;;;;;;;;0.00;0.00;;;;;21.99;42.43;100785.13;4958980;28;45228;-53
2023/09/23 03:24:26;;;;;;;;;0.00;0.00;;;;;21.98;42.64;100786.06;4959394;28;45289;-54
2023/09/23 03:26:58;;;;;;;;;1.50;0.75;;;;;21.98;42.51;100788.72;4959389;28;45334;-54
2023/09/23 03:29:28;;;;;;;;;0.00;0.00;;;;;21.97;42.58;100787.00;4958950;28;46371;-54
2023/09/23 03:31:55;;;;;;;;;0.00;0.00;;;;;21.97;42.21;100792.28;4941557;28;45750;-54
2023/09/23 03:34:21;;;;;;;;;1.75;0.75;;;;;21.97;42.45;100806.31;4958795;28;45335;-57
2023/09/23 03:36:47;;;;;;;;;0.00;0.00;;;;;21.97;42.33;100808.13;4959048;28;45385;-55
2023/09/23 03:39:12;;;;;;;;;0.00;0.00;;;;;21.96;42.40;100801.16;4958706;28;45272;-54
2023/09/23 03:41:38;;;;;;;;;1.00;1.00;;;;;21.96;42.45;100819.63;4958627;28;45531;-53
2023/09/23 03:44:04;;;;;;;;;1.00;1.00;;;;;21.96;42.47;100803.78;4958791;28;45416;-54
2023/09/23 03:46:30;;;;;;;;;0.00;0.00;;;;;21.97;42.53;100808.13;4958854;28;45365;-54
2023/09/23 03:48:55;;;;;;;;;2.00;1.00;;;;;21.95;42.56;100804.72;4958619;28;47189;-54
2023/09/23 03:51:20;;;;;;;;;0.00;0.00;;;;;21.92;42.23;100817.16;4958602;28;45363;-56
2023/09/23 03:53:51;;;;;;;;;1.75;0.50;;;;;21.93;42.58;100815.38;4957861;28;60289;-55
2023/09/23 03:56:16;;;;;;;;;0.00;0.00;;;;;21.92;42.53;100806.59;4958582;28;45336;-53
2023/09/23 03:58:43;;;;;;;;;1.00;1.00;;;;;21.93;42.46;100816.22;4958206;28;46388;-57
2023/09/23 04:01:13;;;;;;;;;0.00;0.00;;;;;21.93;42.46;100812.75;4958353;28;45717;-53
2023/09/23 04:03:39;;;;;;;;;2.00;0.00;;;;;21.92;42.35;100811.88;4957346;28;45360;-54
2023/09/23 04:06:05;;;;;;;;;0.25;0.00;;;;;21.91;42.34;100804.91;4958329;28;45527;-55
2023/09/23 04:08:31;;;;;;;;;0.00;0.00;;;;;21.92;42.40;100813.69;4958088;28;46442;-54
2023/09/23 04:10:56;;;;;;;;;2.50;0.25;;;;;21.92;42.48;100818.97;4958598;28;45365;-53
2023/09/23 04:13:21;;;;;;;;;2.00;1.00;;;;;21.91;42.42;100820.75;4958239;28;45496;-53
2023/09/23 04:15:47;;;;;;;;;1.25;0.50;;;;;21.92;42.67;100817.16;4958243;28;45370;-56
2023/09/23 04:18:12;;;;;;;;;1.00;1.00;;;;;21.92;42.60;100822.44;4958109;28;45647;-51
2023/09/23 04:20:37;;;;;;;;;0.00;0.00;;;;;21.93;42.40;100825.94;4957490;28;60227;-49
2023/09/23 04:23:03;;;;;;;;;6.00;0.75;;;;;21.93;42.69;100824.13;4957893;28;49051;-52
2023/09/23 04:25:29;;;;;;;;;3.00;0.00;;;;;21.93;42.69;100825.94;4958540;28;45181;-54
2023/09/23 04:27:54;;;;;;;;;1.00;1.00;;;;;21.93;42.92;100829.41;4958244;28;46117;-52
2023/09/23 04:30:20;;;;;;;;;2.00;0.75;;;;;21.96;42.71;100835.44;4957958;28;45331;-50
2023/09/23 04:32:46;;;;;;;;;2.00;0.00;;;;;21.96;42.60;100832.81;4957998;28;45589;-56
2023/09/23 04:35:21;;;;;;;;;1.00;1.00;;;;;21.97;42.38;100839.78;4958245;28;45591;-53
2023/09/23 04:37:46;;;;;;;;;1.00;0.00;;;;;21.96;42.49;100832.81;4957955;28;46077;-50
2023/09/23 04:40:13;;;;;;;;;1.75;1.50;;;;;22.01;42.58;100841.28;4957145;28;62128;-52
2023/09/23 04:42:40;;;;;;;;;0.00;0.00;;;;;22.02;42.50;100838.56;4957968;28;45473;-53
2023/09/23 04:45:07;;;;;;;;;0.25;0.00;;;;;22.03;42.51;100837.63;4958140;28;45346;-53
2023/09/23 04:47:35;;;;;;;;;1.50;0.00;;;;;22.06;42.56;100852.41;4956240;28;46207;-52
2023/09/23 04:50:01;;;;;;;;;1.25;0.00;;;;;22.09;42.57;100850.44;4957838;28;45986;-52
2023/09/23 04:52:29;;;;;;;;;6.00;0.00;;;;;22.09;42.47;100860.16;4958167;28;45582;-55
2023/09/23 04:54:54;;;;;;;;;2.00;0.00;;;;;22.08;42.39;100869.00;4957993;28;45539;-52
2023/09/23 04:57:21;;;;;;;;;2.00;0.00;;;;;22.06;42.37;100869.09;4957577;28;45326;-52
2023/09/23 04:59:46;;;;;;;;;0.00;0.00;;;;;22.04;42.35;100870.13;4957654;28;45311;-53
2023/09/23 05:02:17;;;;;;;;;3.00;0.00;;;;;22.05;42.24;100869.19;4957727;28;45236;-53
2023/09/23 05:04:45;;;;;;;;;1.75;0.00;;;;;22.03;42.31;100869.28;4957814;28;45436;-55
2023/09/23 05:07:10;;;;;;;;;0.25;0.25;;;;;22.02;42.24;100872.00;4939914;28;46176;-53
2023/09/23 05:09:37;;;;;;;;;2.00;0.00;;;;;22.00;42.22;100877.38;4957417;28;45303;-52
2023/09/23 05:12:02;;;;;;;;;0.50;0.50;;;;;21.98;42.11;100879.28;4957469;28;45244;-55
2023/09/23 05:14:27;;;;;;;;;1.00;0.00;;;;;21.99;42.31;100883.59;4960911;28;45380;-52
2023/09/23 05:16:53;;;;;;;;;2.00;0.75;;;;;21.97;42.59;100890.75;4963374;28;59384;-50
2023/09/23 05:19:21;;;;;;;;;1.00;1.00;;;;;21.95;42.09;100900.56;4963164;28;61041;-53
2023/09/23 05:21:47;;;;;;;;;0.00;0.00;;;;;21.92;42.48;100896.31;4963866;28;45397;-52
2023/09/23 05:24:12;;;;;;;;;0.00;0.00;;;;;21.94;42.32;100904.13;4964155;28;45784;-53
2023/09/23 05:26:40;;;;;;;;;0.75;0.00;;;;;21.93;42.25;100905.09;4963403;28;46173;-49
2023/09/23 05:29:05;;;;;;;;;0.00;0.00;;;;;21.91;42.30;100907.81;4962418;28;45746;-53
2023/09/23 05:31:31;;;;;;;;;2.00;0.00;;;;;21.92;42.31;100917.44;4964102;28;45929;-53
2023/09/23 05:33:56;;;;;;;;;1.00;1.00;;;;;21.91;42.35;100917.53;4963916;28;45464;-49
2023/09/23 05:36:21;;;;;;;;;1.00;0.00;;;;;21.90;42.31;100918.47;4962747;28;63078;-54
2023/09/23 05:38:47;;;;;;;;;2.00;0.00;;;;;21.89;42.13;100928.16;4963438;28;45311;-50
2023/09/23 05:41:13;;;;;;;;;1.75;0.00;;;;;21.90;42.29;100940.41;4963543;28;45278;-52
2023/09/23 05:43:39;;;;;;;;;0.00;0.00;;;;;21.89;42.57;100938.72;4963940;28;45536;-49
2023/09/23 05:46:05;;;;;;;;;0.50;0.50;;;;;21.88;42.11;100942.28;4963237;28;47164;-50
2023/09/23 05:48:31;;;;;;;;;1.25;0.25;;;;;21.87;42.40;100948.53;4963822;28;45434;-54
2023/09/23 05:51:04;;;;;;;;;0.00;0.00;;;;;21.88;42.26;100959.94;4963232;28;45343;-51
2023/09/23 05:53:30;;;;;;;;;0.50;0.50;;;;;21.86;42.09;100959.16;4963965;28;45283;-55
2023/09/23 05:55:55;;;;;;;;;2.00;0.50;;;;;21.87;42.16;100960.88;4963244;28;45331;-52
2023/09/23 05:58:21;;;;;;;;;0.00;0.00;;;;;21.83;42.10;100960.19;4963261;28;45281;-60
2023/09/23 06:00:46;;;;;;;;;0.25;0.25;;;;;21.85;42.22;100966.25;4963030;28;49897;-53
2023/09/23 06:03:15;;;;;;;;;0.75;0.00;;;;;21.85;42.25;100973.28;4963541;28;45426;-58
2023/09/23 06:05:41;;;;;;;;;0.50;0.25;;;;;21.85;42.27;100968.88;4963070;28;47016;-62
2023/09/23 06:08:06;;;;;;;;;3.50;1.00;;;;;21.85;41.95;100973.28;4963230;28;45425;-57
2023/09/23 06:10:33;;;;;;;;;0.50;0.25;;;;;21.84;42.32;100985.66;4962807;28;58934;-53
2023/09/23 06:12:58;;;;;;;;;0.00;0.00;;;;;21.84;42.35;100982.16;4963406;28;45573;-50
2023/09/23 06:15:23;;;;;;;;;0.00;0.00;;;;;21.83;42.13;100997.13;4963000;28;46054;-53
2023/09/23 06:17:49;;;;;;;;;1.50;0.00;;;;;21.83;42.14;100994.50;4962969;28;45466;-53
2023/09/23 06:20:15;;;;;;;;;0.00;0.00;;;;;21.81;41.96;100999.00;4963079;28;45399;-53
2023/09/23 06:22:40;;;;;;;;;1.00;0.25;;;;;21.82;42.17;101002.53;4963226;28;45402;-52
2023/09/23 06:25:06;;;;;;;;;0.50;0.00;;;;;21.81;42.28;101004.28;4962066;28;53794;-51
2023/09/23 06:27:31;;;;;;;;;0.00;0.00;;;;;21.81;42.15;101006.09;4959349;28;45271;-50
2023/09/23 06:29:57;;;;;;;;;1.75;0.00;;;;;21.80;42.34;101007.03;4960001;28;45467;-54
2023/09/23 06:32:22;;;;;;;;;1.00;0.00;;;;;21.80;42.17;101013.13;4942456;28;45704;-54
2023/09/23 06:34:47;;;;;;;;;1.75;0.00;;;;;21.81;42.23;101020.13;4959522;28;45306;-54
2023/09/23 06:37:12;;;;;;;;;0.00;0.00;;;;;21.78;42.11;101012.38;4959288;28;53579;-57
2023/09/23 06:39:38;;;;;;;;;2.25;0.25;;;;;21.80;42.20;101022.84;4959772;28;45394;-56
2023/09/23 06:42:04;;;;;;;;;1.25;1.00;;;;;21.78;42.08;101031.72;4959616;28;50499;-53
2023/09/23 06:44:29;;;;;;;;;0.25;0.25;;;;;21.80;42.25;101026.34;4959426;28;45422;-55
2023/09/23 06:46:54;;;;;;;;;3.50;0.75;;;;;21.80;42.01;101028.97;4959150;28;52955;-52
2023/09/23 06:49:20;;;;;;;;;0.75;0.00;;;;;21.80;42.03;101034.25;4959416;28;45390;-58
2023/09/23 06:51:45;;;;;;;;;1.00;0.00;;;;;21.80;42.30;101033.41;4958244;28;45341;-56
2023/09/23 06:54:10;;;;;;;;;3.00;0.50;;;;;21.80;42.11;101033.41;4959265;28;46098;-55
2023/09/23 06:56:36;;;;;;;;;0.00;0.00;;;;;21.80;41.95;101042.16;4959611;28;45334;-54
2023/09/23 06:59:01;;;;;;;;;1.00;1.00;;;;;21.80;41.98;101044.81;4959367;28;45476;-60
2023/09/23 07:01:27;;;;;;;;;0.00;0.00;;;;;21.81;42.16;101045.66;4959505;28;45161;-55
2023/09/23 07:03:52;;;;;;;;;0.00;0.00;;;;;21.81;42.30;101051.78;4958944;28;46389;-55
2023/09/23 07:06:18;;;;;;;;;0.00;0.00;;;;;21.78;42.05;101047.53;4959138;28;45365;-52
2023/09/23 07:08:43;;;;;;;;;1.00;1.00;;;;;21.78;42.24;101050.19;4959396;28;45300;-52
2023/09/23 07:11:15;;;;;;;;;0.75;0.00;;;;;21.82;42.10;101061.41;4959539;28;45775;-51
2023/09/23 07:13:40;;;;;;;;;1.25;0.75;;;;;21.82;41.99;101058.75;4957720;28;47244;-54
2023/09/23 07:16:05;;;;;;;;;1.00;1.00;;;;;21.83;41.71;101070.19;4959220;28;45325;-56
2023/09/23 07:18:31;;;;;;;;;0.00;0.00;;;;;21.83;42.30;101073.66;4959192;28;45251;-52
2023/09/23 07:20:57;;;;;;;;;3.00;0.00;;;;;21.83;42.14;101081.56;4959229;28;45572;-58
2023/09/23 07:23:22;;;;;;;;;1.50;0.25;;;;;21.81;42.04;101083.44;4958746;28;46254;-54
2023/09/23 07:25:47;;;;;;;;;1.00;1.00;;;;;21.83;42.19;101083.38;4958573;28;51394;-53
2023/09/23 07:28:13;;;;;;;;;1.00;1.00;;;;;21.85;42.22;101089.38;4958940;28;45272;-53
2023/09/23 07:30:38;;;;;;;;;3.25;2.00;;;;;21.84;42.18;101092.97;4959380;28;45199;-58
2023/09/23 07:33:03;;;;;;;;;4.50;3.00;;;;;21.84;42.06;101104.38;4958543;28;48699;-57
2023/09/23 07:35:31;;;;;;;;;4.00;2.25;;;;;21.85;42.25;101105.22;4958687;28;45407;-56
2023/09/23 07:37:56;;;;;;;;;7.75;4.75;;;;;21.82;42.47;101100.13;4958619;28;45260;-57
2023/09/23 07:40:22;;;;;;;;;7.00;5.25;;;;;21.85;42.46;101100.81;4958794;28;45545;-53
2023/09/23 07:42:47;;;;;;;;;6.50;6.50;;;;;21.85;42.77;101100.81;4958496;28;46456;-61
2023/09/23 07:45:12;;;;;;;;;9.00;5.50;;;;;21.86;42.73;101107.78;4958483;28;45378;-58
2023/09/23 07:47:38;;;;;;;;;7.50;6.00;;;;;21.85;42.42;101106.09;4958756;28;45387;-54
2023/09/23 07:50:03;;;;;;;;;6.67;5.00;;;;;21.85;42.55;101118.41;4958113;28;50057;-57
2023/09/23 07:52:29;;;;;;;;;14.75;7.25;;;;;21.87;42.65;101124.47;4958217;28;45505;-61
2023/09/23 07:54:54;;;;;;;;;7.25;5.00;;;;;21.84;42.82;101119.34;4958422;28;45444;-57
2023/09/23 07:57:20;;;;;;;;;11.50;5.00;;;;;21.87;42.72;101135.88;4958506;28;45432;-60
2023/09/23 07:59:45;;;;;;;;;10.25;6.00;;;;;21.87;42.84;101141.16;4958697;28;45517;-51
2023/09/23 08:02:10;;;;;;;;;5.00;4.25;;;;;21.87;42.80;101142.94;4958455;28;46204;-55
2023/09/23 08:04:36;;;;;;;;;7.00;7.00;;;;;21.87;43.00;101142.94;4958239;28;45358;-56
2023/09/23 08:07:01;;;;;;;;;9.25;7.75;;;;;21.87;42.77;101146.44;4958342;28;45516;-50
2023/09/23 08:09:26;;;;;;;;;7.00;4.75;;;;;21.87;42.83;101146.44;4953717;28;45617;-52
2023/09/23 08:11:51;;;;;;;;;5.25;2.50;;;;;21.88;42.70;101163.94;4938652;28;46068;-55
2023/09/23 08:14:17;;;;;;;;;5.00;4.75;;;;;21.88;42.66;101171.88;4938310;28;59055;-52
2023/09/23 08:16:42;;;;;;;;;8.25;5.00;;;;;21.89;42.81;101178.00;4939108;28;45161;-52
2023/09/23 08:19:08;;;;;;;;;6.50;4.75;;;;;21.89;43.16;101181.47;4939234;28;45650;-53
2023/09/23 08:21:33;;;;;;;;;4.25;4.25;;;;;21.87;42.91;101180.75;4921208;28;58405;-56
2023/09/23 08:23:59;;;;;;;;;4.75;4.50;;;;;21.87;43.43;101183.38;4938704;28;45364;-55
2023/09/23 08:26:24;;;;;;;;;4.00;4.00;;;;;21.89;42.78;101186.75;4938698;28;45318;-53
2023/09/23 08:28:49;;;;;;;;;3.50;3.50;;;;;21.90;42.96;101193.75;4938952;28;45588;-55
2023/09/23 08:31:15;;;;;;;;;3.00;3.00;;;;;21.89;42.94;101194.69;4938592;28;45221;-52
2023/09/23 08:33:40;;;;;;;;;2.50;2.50;;;;;21.90;42.74;101198.19;4938531;28;53450;-55
2023/09/23 08:36:05;;;;;;;;;5.00;2.00;;;;;21.90;42.77;101199.03;4938366;28;50422;-61
2023/09/23 08:38:31;;;;;;;;;2.75;2.75;;;;;21.91;42.66;101206.00;4938803;28;45216;-57
2023/09/23 08:40:57;;;;;;;;;4.50;2.00;;;;;21.92;42.80;101206.88;4937925;28;59207;-56
2023/09/23 08:43:36;;;;;;;;;3.00;3.00;;;;;21.93;42.70;101214.69;4938444;28;45375;-64
2023/09/23 08:46:04;;;;;;;;;2.00;2.00;;;;;21.91;42.71;101216.56;4937272;28;45390;-59
2023/09/23 08:48:31;;;;;;;;;2.00;2.00;;;;;21.92;42.70;101220.91;4937899;28;45212;-62
2023/09/23 08:50:58;;;;;;;;;1.00;1.00;;;;;21.95;42.60;101232.22;4937913;28;46980;-57
2023/09/23 08:53:26;;;;;;;;;2.00;2.00;;;;;21.92;42.77;101231.47;4938315;28;45306;-56
2023/09/23 08:55:53;;;;;;;;;4.25;2.00;;;;;21.96;42.58;101231.31;4921071;28;45448;-55
2023/09/23 08:58:19;;;;;;;;;4.00;2.50;;;;;21.95;42.56;101232.22;4938576;28;45315;-61
2023/09/23 09:00:46;;;;;;;;;6.00;1.00;;;;;21.96;42.88;101228.66;4938532;28;45200;-58
2023/09/23 09:03:12;;;;;;;;;1.00;1.00;;;;;21.96;42.46;101236.56;4921228;28;45333;-52
2023/09/23 09:05:43;;;;;;;;;3.00;1.00;;;;;21.96;42.55;101234.78;4938213;28;45322;-55
2023/09/23 09:08:09;;;;;;;;;2.00;1.00;;;;;21.95;42.72;101233.06;4937780;28;45610;-57
2023/09/23 09:10:35;;;;;;;;;2.00;1.25;;;;;21.97;42.33;101241.75;4937827;28;45989;-57
2023/09/23 09:13:02;;;;;;;;;1.50;1.00;;;;;21.97;42.16;101246.19;4938020;28;45292;-53
2023/09/23 09:15:28;;;;;;;;;3.00;2.00;;;;;21.93;42.44;101243.72;4921283;28;45371;-57
2023/09/23 09:17:53;;;;;;;;;2.00;2.00;;;;;21.96;42.44;101255.88;4938317;28;45673;-59
2023/09/23 09:20:19;;;;;;;;;3.00;1.25;;;;;21.97;42.47;101251.47;4937812;28;47110;-59
2023/09/23 09:22:45;;;;;;;;;2.00;1.00;;;;;21.97;42.62;101254.13;4937848;28;56537;-57
2023/09/23 09:25:12;;;;;;;;;1.50;1.00;;;;;21.99;42.57;101257.53;4938109;28;45275;-55
2023/09/23 09:27:37;;;;;;;;;2.00;0.00;;;;;21.99;42.53;101244.34;4937975;28;45472;-51
2023/09/23 09:30:11;;;;;;;;;2.00;2.00;;;;;22.00;42.52;101238.09;4937666;28;47071;-64
2023/09/23 09:32:40;;;;;;;;;1.25;1.00;;;;;21.99;42.45;101239.06;4937583;28;45671;-58
2023/09/23 09:35:13;;;;;;;;;3.75;2.00;;;;;22.00;42.38;101246.00;4937944;28;45380;-56
2023/09/23 09:37:47;;;;;;;;;1.00;1.00;;;;;22.03;42.45;101252.00;4938030;28;45420;-55
2023/09/23 09:40:17;;;;;;;;;1.50;1.00;;;;;22.03;42.35;101249.34;4937596;28;46778;-52
2023/09/23 09:42:54;;;;;;;;;1.25;1.00;;;;;22.04;42.63;101247.56;4937971;28;45360;-52
2023/09/23 09:45:20;;;;;;;;;1.50;1.00;;;;;22.04;42.19;101247.56;4937772;28;45365;-55
2023/09/23 09:47:50;;;;;;;;;0.25;0.25;;;;;22.06;42.33;101243.06;4938212;28;45485;-56
2023/09/23 09:50:16;;;;;;;;;1.25;1.25;;;;;22.08;42.42;101249.09;4937571;28;47422;-53
2023/09/23 09:52:45;;;;;;;;;2.00;1.00;;;;;22.09;42.22;101250.81;4936290;28;45311;-58
2023/09/23 09:55:18;;;;;;;;;2.50;1.00;;;;;22.09;42.53;101246.38;4934503;28;45417;-58
2023/09/23 09:57:45;;;;;;;;;4.25;1.00;;;;;22.09;42.40;101259.56;4937758;28;45404;-54
2023/09/23 10:00:26;;;;;;;;;0.50;0.50;;;;;22.11;42.37;101259.47;4937314;28;47028;-49
2023/09/23 10:03:08;;;;;;;;;1.00;1.00;;;;;22.12;42.54;101262.97;4940706;28;45284;-56
2023/09/23 10:05:35;;;;;;;;;3.00;1.25;;;;;22.12;42.18;101266.44;4940981;28;45524;-58
2023/09/23 10:08:15;;;;;;;;;0.75;0.75;;;;;22.12;42.29;101269.09;4940947;28;45421;-52
2023/09/23 10:10:49;;;;;;;;;0.25;0.25;;;;;22.11;41.87;101270.03;4940528;28;47140;-53
2023/09/23 10:13:19;;;;;;;;;0.25;0.25;;;;;22.12;42.39;101270.91;4940827;28;45442;-54
2023/09/23 10:15:45;;;;;;;;;3.50;1.00;;;;;22.11;42.27;101277.09;4940896;28;45475;-57
2023/09/23 10:18:16;;;;;;;;;1.00;1.00;;;;;22.13;42.18;101277.88;4940918;28;45284;-57
2023/09/23 10:20:51;;;;;;;;;1.00;1.00;;;;;22.12;42.39;101277.00;4940443;28;45368;-57
2023/09/23 10:23:19;;;;;;;;;1.00;1.00;;;;;22.12;42.39;101277.00;4940934;28;45765;-55
2023/09/23 10:25:46;;;;;;;;;1.50;1.50;;;;;22.13;42.44;101277.88;4923292;28;45321;-56
2023/09/23 10:28:28;;;;;;;;;4.00;1.00;;;;;22.12;42.21;101276.19;4940778;28;45549;-51
2023/09/23 10:30:58;;;;;;;;;2.00;2.00;;;;;22.13;42.43;101284.00;4940031;28;46680;-55
2023/09/23 10:33:26;;;;;;;;;2.50;0.75;;;;;22.14;42.20;101282.22;4940358;28;45838;-56
2023/09/23 10:35:52;;;;;;;;;2.00;2.00;;;;;22.13;42.11;101286.63;4940337;28;45354;-59
2023/09/23 10:38:21;;;;;;;;;2.00;1.50;;;;;22.14;41.99;101279.59;4940865;28;45232;-59
2023/09/23 10:40:52;;;;;;;;;2.00;1.00;;;;;22.15;42.42;101281.28;4940400;28;46860;-57
2023/09/23 10:43:18;;;;;;;;;2.00;2.00;;;;;22.14;42.31;101290.97;4940360;28;45216;-65
2023/09/23 10:45:44;;;;;;;;;2.50;1.00;;;;;22.13;42.06;101297.19;4940200;28;45252;-52
2023/09/23 10:48:09;;;;;;;;;0.00;0.00;;;;;22.14;42.33;101296.25;4940273;28;45521;-61
2023/09/23 10:50:34;;;;;;;;;1.00;1.00;;;;;22.15;42.31;101300.63;4939210;28;45949;-61
2023/09/23 10:53:00;;;;;;;;;3.50;2.00;;;;;22.16;42.37;101299.69;4939935;28;45457;-65
2023/09/23 10:55:25;;;;;;;;;0.50;0.50;;;;;22.16;42.12;101297.03;4940118;28;45218;-58
2023/09/23 10:57:51;;;;;;;;;2.00;2.00;;;;;22.15;42.24;101300.63;4940533;28;45539;-57
2023/09/23 11:00:20;;;;;;;;;2.00;2.00;;;;;22.16;42.17;101302.31;4939850;28;46001;-59
2023/09/23 11:02:54;;;;;;;;;1.00;0.00;;;;;22.18;42.29;101300.44;4939868;28;45341;-61
2023/09/23 11:05:22;;;;;;;;;1.25;1.25;;;;;22.18;42.23;101302.22;4940310;28;45464;-61
2023/09/23 11:07:47;;;;;;;;;1.00;1.00;;;;;22.17;42.08;101301.38;4939950;28;45563;-56
2023/09/23 11:10:12;;;;;;;;;1.50;1.50;;;;;22.17;42.02;101301.38;4939660;28;53547;-61
2023/09/23 11:12:42;;;;;;;;;2.50;0.25;;;;;22.17;42.14;101305.78;4939334;28;45317;-57
2023/09/23 11:15:08;;;;;;;;;1.00;1.00;;;;;22.16;42.07;101307.59;4939753;28;45312;-63
2023/09/23 11:17:34;;;;;;;;;1.00;1.00;;;;;22.16;42.18;101304.97;4939881;28;45553;-62
2023/09/23 11:20:01;;;;;;;;;1.50;0.50;;;;;22.17;42.17;101309.31;4939396;28;45418;-57
2023/09/23 11:22:28;;;;;;;;;1.00;1.00;;;;;22.17;42.05;101317.22;4939589;28;45383;-61